Time;durP1;ratioP1;P1;durP2;ratioP2;P2;SDS_P1;SDS_P2;PMS_P1;PMS_P2;Temp;Humidity;BMP_temperature;BMP_pressure;BME280_temperature;BME280_humidity;BME280_pressure;Samples;Min_cycle;Max_cycle;Signal;HPM_P1;HPM_P2
2024/03/30 00:02:33;;;;;;;12.33;3.60;;;8.80;99.90;;;;;;5044154;28;20457;-76
2024/03/30 00:05:18;;;;;;;8.80;3.70;;;8.90;99.90;;;;;;5040772;28;20454;-76
2024/03/30 00:08:05;;;;;;;6.27;3.83;;;8.90;99.90;;;;;;5041885;28;20621;-74
2024/03/30 00:10:58;;;;;;;10.67;4.17;;;8.90;99.90;;;;;;5041069;28;21055;-74
2024/03/30 00:13:44;;;;;;;5.30;3.67;;;8.90;99.90;;;;;;5034163;28;20432;-76
2024/03/30 00:16:29;;;;;;;7.50;4.33;;;8.80;99.90;;;;;;5035657;28;20484;-76
2024/03/30 00:19:15;;;;;;;5.90;3.40;;;8.90;99.90;;;;;;5038162;28;20953;-76
2024/03/30 00:22:00;;;;;;;5.07;3.67;;;8.90;99.90;;;;;;5036024;28;20590;-76
2024/03/30 00:24:45;;;;;;;5.67;3.83;;;8.90;99.90;;;;;;5037856;28;20446;-76
2024/03/30 00:27:30;;;;;;;3.30;3.00;;;8.90;99.90;;;;;;5038635;28;20543;-77
2024/03/30 00:30:17;;;;;;;3.63;3.20;;;8.80;99.90;;;;;;5035992;28;20448;-76
2024/03/30 00:33:02;;;;;;;5.87;3.03;;;8.80;99.90;;;;;;5044691;28;20449;-76
2024/03/30 00:35:50;;;;;;;4.80;2.80;;;8.70;99.90;;;;;;5043140;28;20516;-76
2024/03/30 00:38:37;;;;;;;4.77;3.87;;;8.60;99.90;;;;;;5043746;28;20593;-75
2024/03/30 00:41:23;;;;;;;10.37;4.40;;;8.60;99.90;;;;;;5045367;28;20549;-74
2024/03/30 00:44:07;;;;;;;6.37;4.33;;;8.70;99.90;;;;;;5042045;28;20593;-74
2024/03/30 00:46:53;;;;;;;7.73;4.37;;;8.70;99.90;;;;;;5048611;28;20888;-75
2024/03/30 00:49:38;;;;;;;4.70;3.20;;;8.70;99.90;;;;;;5046358;28;20968;-75
2024/03/30 00:52:25;;;;;;;4.53;3.73;;;8.70;99.90;;;;;;5045059;28;20443;-75
2024/03/30 00:55:10;;;;;;;4.53;3.10;;;8.70;99.90;;;;;;5040051;28;20430;-74
2024/03/30 00:57:55;;;;;;;4.30;3.27;;;8.70;99.90;;;;;;5046135;28;20527;-75
2024/03/30 01:00:40;;;;;;;4.27;3.70;;;8.70;99.90;;;;;;5043534;28;20553;-75
2024/03/30 01:03:27;;;;;;;5.60;3.20;;;8.60;99.90;;;;;;5042199;28;20483;-75
2024/03/30 01:06:11;;;;;;;7.53;3.53;;;8.50;99.90;;;;;;5048943;28;20458;-75
2024/03/30 01:08:58;;;;;;;6.30;3.33;;;8.40;99.90;;;;;;5045479;28;20848;-75
2024/03/30 01:11:43;;;;;;;6.20;3.00;;;8.40;99.90;;;;;;5043576;28;20479;-75
2024/03/30 01:14:31;;;;;;;5.10;2.97;;;8.40;99.90;;;;;;5042913;28;20974;-75
2024/03/30 01:17:17;;;;;;;9.67;2.93;;;8.40;99.90;;;;;;5042128;28;20466;-75
2024/03/30 01:20:05;;;;;;;3.63;3.20;;;8.40;99.90;;;;;;5044869;28;20533;-74
2024/03/30 01:22:50;;;;;;;5.60;3.20;;;8.30;99.90;;;;;;5042610;28;20454;-74
2024/03/30 01:25:37;;;;;;;4.33;2.80;;;8.30;99.90;;;;;;5042666;28;20427;-75
2024/03/30 01:28:23;;;;;;;4.73;2.83;;;8.30;99.90;;;;;;5039745;28;20534;-75
2024/03/30 01:31:11;;;;;;;4.40;3.40;;;8.40;99.90;;;;;;5045841;28;20978;-75
2024/03/30 01:33:56;;;;;;;8.33;3.10;;;8.30;99.90;;;;;;5043438;28;20449;-75
2024/03/30 01:36:42;;;;;;;3.90;2.90;;;8.20;99.90;;;;;;5040494;28;20457;-75
2024/03/30 01:39:27;;;;;;;6.03;3.13;;;8.30;99.90;;;;;;5041374;28;20958;-75
2024/03/30 01:42:14;;;;;;;5.03;2.97;;;8.20;99.90;;;;;;5044357;28;20439;-75
2024/03/30 01:44:58;;;;;;;4.20;3.10;;;8.30;99.90;;;;;;5043084;28;21005;-75
2024/03/30 01:47:44;;;;;;;7.50;2.87;;;8.30;99.90;;;;;;5042028;28;20467;-75
2024/03/30 01:50:29;;;;;;;4.57;2.43;;;8.20;99.90;;;;;;5041616;28;20429;-74
2024/03/30 01:53:19;;;;;;;2.80;2.43;;;8.20;99.90;;;;;;5042454;28;20459;-76
2024/03/30 01:56:04;;;;;;;3.53;2.50;;;8.30;99.90;;;;;;5041640;28;20935;-74
2024/03/30 01:58:51;;;;;;;6.97;2.90;;;8.20;99.90;;;;;;5048479;28;20471;-75
2024/03/30 02:01:40;;;;;;;2.67;2.30;;;8.20;99.90;;;;;;5043291;28;20513;-75
2024/03/30 02:04:26;;;;;;;6.60;2.70;;;8.10;99.90;;;;;;5042494;28;20504;-75
2024/03/30 02:07:12;;;;;;;4.00;2.00;;;8.10;99.90;;;;;;5043896;28;20477;-75
2024/03/30 02:09:57;;;;;;;6.03;2.60;;;8.00;99.90;;;;;;5040159;28;20484;-75
2024/03/30 02:12:42;;;;;;;2.93;2.20;;;7.90;99.90;;;;;;5037085;28;20449;-75
2024/03/30 02:15:29;;;;;;;4.77;2.00;;;8.00;99.90;;;;;;5036410;28;21111;-75
2024/03/30 02:18:14;;;;;;;3.17;2.10;;;8.00;99.90;;;;;;5039060;28;20789;-74
2024/03/30 02:21:00;;;;;;;3.90;2.10;;;8.00;99.90;;;;;;5039699;28;20529;-74
2024/03/30 02:23:46;;;;;;;3.17;2.17;;;7.90;99.90;;;;;;5043212;28;21066;-74
2024/03/30 02:26:31;;;;;;;4.00;2.17;;;7.90;99.90;;;;;;5036760;28;20489;-75
2024/03/30 02:29:18;;;;;;;4.37;2.10;;;7.90;99.90;;;;;;5038803;28;20959;-75
2024/03/30 02:32:05;;;;;;;5.50;1.70;;;7.90;99.90;;;;;;5037334;28;20542;-75
2024/03/30 02:34:50;;;;;;;3.50;2.43;;;7.90;99.90;;;;;;5036908;28;20537;-74
2024/03/30 02:37:36;;;;;;;4.40;2.43;;;7.90;99.90;;;;;;5038849;28;20785;-75
2024/03/30 02:40:22;;;;;;;9.63;2.67;;;8.00;99.90;;;;;;5040397;28;20470;-76
2024/03/30 02:43:08;;;;;;;14.93;2.80;;;7.90;99.90;;;;;;5042035;28;20968;-75
2024/03/30 02:45:52;;;;;;;3.03;2.07;;;7.90;99.90;;;;;;5039759;28;20474;-74
2024/03/30 02:48:38;;;;;;;7.17;2.20;;;7.80;99.90;;;;;;5040429;28;20491;-75
2024/03/30 02:51:23;;;;;;;7.00;3.20;;;7.80;99.90;;;;;;5043853;28;20429;-75
2024/03/30 02:54:08;;;;;;;2.87;1.90;;;7.70;99.90;;;;;;5041694;28;20415;-75
2024/03/30 02:56:54;;;;;;;5.20;2.70;;;7.70;99.90;;;;;;5044958;28;20634;-75
2024/03/30 02:59:40;;;;;;;5.20;2.30;;;7.70;99.90;;;;;;5080592;22;20488;-72
2024/03/30 03:02:26;;;;;;;4.40;2.80;;;7.80;99.90;;;;;;5059156;28;20498;-72
2024/03/30 03:05:10;;;;;;;3.80;2.20;;;7.80;99.90;;;;;;5059490;28;20619;-73
2024/03/30 03:07:55;;;;;;;5.73;2.37;;;7.80;99.90;;;;;;5058857;28;20456;-73
2024/03/30 03:10:40;;;;;;;6.93;2.20;;;7.90;99.90;;;;;;5043691;28;20453;-73
2024/03/30 03:13:27;;;;;;;6.37;2.10;;;7.90;99.90;;;;;;5046534;28;21018;-73
2024/03/30 03:16:12;;;;;;;3.50;2.27;;;7.90;99.90;;;;;;5042167;28;20493;-73
2024/03/30 03:18:57;;;;;;;9.10;2.43;;;7.80;99.90;;;;;;5043388;28;21242;-72
2024/03/30 03:21:42;;;;;;;4.90;2.30;;;7.70;99.90;;;;;;5041775;28;20470;-74
2024/03/30 03:24:28;;;;;;;2.60;1.90;;;7.60;99.90;;;;;;5042538;28;20492;-73
2024/03/30 03:27:12;;;;;;;2.60;1.70;;;7.60;99.90;;;;;;5044194;28;20481;-73
2024/03/30 03:30:00;;;;;;;5.63;2.40;;;7.60;99.90;;;;;;5038799;28;21042;-73
2024/03/30 03:32:45;;;;;;;3.93;1.90;;;7.60;99.90;;;;;;5042103;28;20660;-72
2024/03/30 03:35:30;;;;;;;6.73;2.20;;;7.60;99.90;;;;;;5043943;28;20477;-74
2024/03/30 03:38:15;;;;;;;5.07;2.20;;;7.60;99.90;;;;;;5041230;28;20477;-73
2024/03/30 03:41:00;;;;;;;4.00;2.00;;;7.50;99.90;;;;;;5044296;28;20519;-73
2024/03/30 03:43:45;;;;;;;5.30;1.87;;;7.40;99.90;;;;;;5043235;28;20454;-73
2024/03/30 03:46:32;;;;;;;4.63;2.30;;;7.50;99.90;;;;;;5042164;28;20450;-73
2024/03/30 03:49:17;;;;;;;4.60;2.00;;;7.50;99.90;;;;;;5043470;28;20851;-73
2024/03/30 03:52:03;;;;;;;10.53;2.50;;;7.50;99.90;;;;;;5044185;28;20531;-73
2024/03/30 03:54:48;;;;;;;9.53;1.77;;;7.50;99.90;;;;;;5041094;28;21084;-72
2024/03/30 03:57:33;;;;;;;4.70;1.63;;;7.50;99.90;;;;;;5039796;28;20990;-73
2024/03/30 04:00:18;;;;;;;4.00;2.05;;;7.40;99.90;;;;;;5041013;28;20507;-73
2024/03/30 04:03:06;;;;;;;10.13;2.20;;;7.40;99.90;;;;;;5040246;28;20207;-73
2024/03/30 04:05:51;;;;;;;6.23;2.23;;;7.40;99.90;;;;;;5040401;28;20592;-73
2024/03/30 04:08:36;;;;;;;4.70;1.93;;;7.40;99.90;;;;;;5042651;28;20528;-73
2024/03/30 04:11:21;;;;;;;4.10;1.97;;;7.40;99.90;;;;;;5039539;28;21048;-73
2024/03/30 04:14:07;;;;;;;5.77;2.30;;;7.40;99.90;;;;;;5043885;28;20447;-72
2024/03/30 04:16:51;;;;;;;18.47;2.40;;;7.30;99.90;;;;;;5040666;28;20852;-72
2024/03/30 04:19:39;;;;;;;6.80;1.97;;;7.30;99.90;;;;;;5044957;28;20496;-73
2024/03/30 04:22:24;;;;;;;8.10;2.37;;;7.20;99.90;;;;;;5043555;28;20459;-73
2024/03/30 04:25:10;;;;;;;7.50;2.20;;;7.20;99.90;;;;;;5047004;28;20453;-73
2024/03/30 04:27:54;;;;;;;5.33;1.90;;;7.10;99.90;;;;;;5043373;28;20453;-73
2024/03/30 04:30:40;;;;;;;5.07;2.10;;;7.10;99.90;;;;;;5041116;28;20448;-73
2024/03/30 04:33:25;;;;;;;4.80;1.87;;;7.10;99.90;;;;;;5042165;28;20881;-73
2024/03/30 04:36:11;;;;;;;6.23;1.87;;;7.10;99.90;;;;;;5040558;28;20479;-72
2024/03/30 04:38:57;;;;;;;8.50;1.80;;;7.10;99.90;;;;;;5045331;28;21034;-73
2024/03/30 04:41:43;;;;;;;13.03;2.03;;;7.00;99.90;;;;;;5040507;28;20577;-73
2024/03/30 04:44:29;;;;;;;7.40;2.50;;;6.90;99.90;;;;;;5041290;28;20933;-73
2024/03/30 04:47:13;;;;;;;6.83;2.50;;;6.90;99.90;;;;;;5038978;28;20253;-73
2024/03/30 04:49:59;;;;;;;6.87;2.27;;;6.80;99.90;;;;;;5042283;28;20986;-73
2024/03/30 04:52:45;;;;;;;6.43;1.40;;;6.90;99.90;;;;;;5040504;28;20453;-72
2024/03/30 04:55:30;;;;;;;13.53;2.10;;;6.90;99.90;;;;;;5038907;28;20953;-73
2024/03/30 04:58:16;;;;;;;6.63;2.17;;;6.90;99.90;;;;;;5037938;28;20468;-73
2024/03/30 05:01:04;;;;;;;5.13;1.77;;;6.90;99.90;;;;;;5041523;28;20762;-73
2024/03/30 05:03:49;;;;;;;5.17;1.80;;;6.90;99.90;;;;;;5035179;28;20430;-72
2024/03/30 05:06:34;;;;;;;2.43;1.63;;;6.90;99.90;;;;;;5042184;28;20453;-73
2024/03/30 05:09:21;;;;;;;7.40;2.27;;;6.90;99.90;;;;;;5039751;28;20472;-73
2024/03/30 05:12:07;;;;;;;5.53;3.00;;;6.80;99.90;;;;;;5042156;28;20484;-72
2024/03/30 05:14:52;;;;;;;11.53;2.27;;;6.90;99.90;;;;;;5040272;28;20997;-73
2024/03/30 05:17:37;;;;;;;6.00;2.30;;;6.80;99.90;;;;;;5042906;28;20989;-73
2024/03/30 05:23:27;;;;;;;9.17;2.73;;;6.80;99.90;;;;;;5045856;28;20547;-73
2024/03/30 05:26:13;;;;;;;10.80;2.30;;;6.90;99.90;;;;;;5044875;28;20488;-73
2024/03/30 05:28:59;;;;;;;15.43;3.50;;;6.90;99.90;;;;;;5050966;28;20472;-70
2024/03/30 05:31:43;;;;;;;8.00;3.27;;;6.90;99.90;;;;;;5045343;28;20429;-70
2024/03/30 05:34:29;;;;;;;8.20;2.30;;;6.80;99.90;;;;;;5041791;28;20752;-70
2024/03/30 05:37:14;;;;;;;6.73;2.20;;;6.90;99.90;;;;;;5042836;28;20808;-70
2024/03/30 05:39:59;;;;;;;5.40;2.23;;;6.90;99.90;;;;;;5043010;28;20465;-69
2024/03/30 05:42:46;;;;;;;6.83;2.27;;;6.90;99.90;;;;;;5044118;28;20465;-69
2024/03/30 05:45:32;;;;;;;13.43;2.60;;;7.00;99.90;;;;;;5044779;28;20950;-70
2024/03/30 05:48:16;;;;;;;9.53;2.40;;;7.10;99.90;;;;;;5043105;28;23375;-69
2024/03/30 05:51:04;;;;;;;10.33;3.00;;;7.20;99.90;;;;;;5040249;28;20436;-69
2024/03/30 05:53:48;;;;;;;8.10;3.47;;;7.30;99.90;;;;;;5038602;28;20519;-73
2024/03/30 05:56:34;;;;;;;16.87;4.00;;;7.40;99.90;;;;;;5042400;28;20860;-73
2024/03/30 05:59:21;;;;;;;16.33;4.70;;;7.40;99.90;;;;;;5040401;28;20486;-74
2024/03/30 06:02:06;;;;;;;15.23;5.30;;;7.50;99.90;;;;;;5041779;28;20459;-73
2024/03/30 06:04:52;;;;;;;10.90;3.80;;;7.60;99.90;;;;;;5041279;28;20792;-72
2024/03/30 06:07:37;;;;;;;13.60;6.10;;;7.60;99.90;;;;;;5041254;28;20497;-73
2024/03/30 06:10:22;;;;;;;14.53;5.73;;;7.70;99.90;;;;;;5046507;28;20500;-73
2024/03/30 06:13:07;;;;;;;14.10;5.67;;;7.70;99.90;;;;;;5042964;28;20596;-74
2024/03/30 06:16:01;;;;;;;17.90;5.33;;;7.80;99.90;;;;;;5039883;28;20459;-74
2024/03/30 06:18:46;;;;;;;16.57;5.03;;;7.90;99.90;;;;;;5040717;28;20605;-73
2024/03/30 06:21:32;;;;;;;11.67;4.33;;;7.90;99.90;;;;;;5041588;28;20927;-73
2024/03/30 06:24:16;;;;;;;33.03;5.13;;;8.00;99.90;;;;;;5038036;28;20503;-73
2024/03/30 06:27:02;;;;;;;12.50;4.30;;;8.10;99.90;;;;;;5043082;28;20496;-73
2024/03/30 06:29:47;;;;;;;11.83;4.27;;;8.10;99.90;;;;;;5037909;28;20861;-73
2024/03/30 06:32:34;;;;;;;11.10;4.33;;;8.20;99.90;;;;;;5041002;28;20512;-73
2024/03/30 06:35:19;;;;;;;15.33;4.50;;;8.20;99.90;;;;;;5035762;28;20512;-74
2024/03/30 06:38:05;;;;;;;16.73;5.00;;;8.30;99.90;;;;;;5044067;28;20551;-73
2024/03/30 06:43:54;;;;;;;11.10;4.63;;;8.50;99.90;;;;;;5043132;28;21043;-73
2024/03/30 06:46:40;;;;;;;17.33;4.67;;;8.40;99.90;;;;;;5041690;28;20459;-72
2024/03/30 06:49:27;;;;;;;13.47;4.80;;;8.50;99.90;;;;;;5039283;28;22343;-74
2024/03/30 06:52:12;;;;;;;8.83;4.73;;;8.60;99.90;;;;;;5039227;28;20547;-74
2024/03/30 06:54:58;;;;;;;11.37;5.23;;;8.60;99.90;;;;;;5039307;28;20468;-73
2024/03/30 06:57:43;;;;;;;22.93;5.50;;;8.70;99.90;;;;;;5038370;28;20605;-73
2024/03/30 07:00:28;;;;;;;23.83;5.97;;;8.70;99.90;;;;;;5045047;28;20453;-73
2024/03/30 07:03:13;;;;;;;15.67;5.27;;;8.70;99.90;;;;;;5041340;28;20517;-73
2024/03/30 07:06:00;;;;;;;15.03;5.20;;;8.80;99.90;;;;;;5040891;28;20449;-73
2024/03/30 07:08:45;;;;;;;29.03;6.00;;;8.80;99.90;;;;;;5040268;28;20522;-73
2024/03/30 07:11:31;;;;;;;17.40;5.40;;;8.90;99.90;;;;;;5041871;28;20457;-73
2024/03/30 07:14:15;;;;;;;22.30;5.13;;;8.90;99.90;;;;;;5040929;28;20525;-74
2024/03/30 07:17:01;;;;;;;11.80;4.57;;;9.00;99.90;;;;;;5042675;28;20502;-73
2024/03/30 07:19:46;;;;;;;19.80;5.20;;;9.00;99.90;;;;;;5043628;28;20479;-73
2024/03/30 07:22:33;;;;;;;16.80;4.90;;;9.00;99.90;;;;;;5037843;28;20541;-74
2024/03/30 07:25:17;;;;;;;16.80;4.10;;;9.10;99.90;;;;;;5044366;28;20500;-73
2024/03/30 07:28:03;;;;;;;17.03;4.33;;;9.10;99.90;;;;;;5041561;28;20436;-73
2024/03/30 07:30:53;;;;;;;18.37;5.17;;;9.20;99.90;;;;;;5040924;28;20816;-73
2024/03/30 07:33:38;;;;;;;22.30;4.73;;;9.20;99.90;;;;;;5039443;28;20496;-74
2024/03/30 07:36:24;;;;;;;16.43;4.73;;;9.30;99.90;;;;;;5040015;28;20450;-73
2024/03/30 07:39:10;;;;;;;12.90;3.70;;;9.40;99.90;;;;;;5042783;28;20547;-73
2024/03/30 07:41:56;;;;;;;12.77;5.43;;;9.40;99.90;;;;;;5037707;28;20643;-74
2024/03/30 07:44:41;;;;;;;17.47;4.73;;;9.50;99.90;;;;;;5042425;28;20452;-73
2024/03/30 07:47:26;;;;;;;10.80;5.67;;;9.50;99.90;;;;;;5039961;28;20538;-74
2024/03/30 07:50:11;;;;;;;15.37;5.50;;;9.50;99.90;;;;;;5037392;28;20426;-73
2024/03/30 07:52:57;;;;;;;25.73;5.97;;;9.40;99.90;;;;;;5037881;28;21008;-73
2024/03/30 07:55:44;;;;;;;29.27;6.47;;;9.50;99.90;;;;;;5039606;28;20446;-74
2024/03/30 07:58:29;;;;;;;19.53;6.00;;;9.60;99.90;;;;;;5037015;28;20502;-73
2024/03/30 08:01:14;;;;;;;23.30;5.70;;;9.60;99.90;;;;;;5036292;28;20483;-73
2024/03/30 08:03:59;;;;;;;19.80;5.80;;;9.60;99.90;;;;;;5034805;28;20795;-74
2024/03/30 08:06:45;;;;;;;25.43;6.20;;;9.80;99.90;;;;;;5034946;28;20451;-73
2024/03/30 08:09:30;;;;;;;14.43;5.47;;;9.80;99.90;;;;;;5033756;28;20452;-73
2024/03/30 08:12:17;;;;;;;26.30;6.20;;;9.90;99.90;;;;;;5038672;28;20459;-73
2024/03/30 08:15:02;;;;;;;22.80;6.27;;;10.00;99.90;;;;;;5036237;28;20539;-73
2024/03/30 08:17:47;;;;;;;30.10;6.87;;;10.10;99.90;;;;;;5037290;28;20450;-73
2024/03/30 08:20:32;;;;;;;29.53;9.17;;;10.20;99.90;;;;;;5039595;28;20425;-73
2024/03/30 08:23:17;;;;;;;16.47;6.10;;;10.30;99.90;;;;;;5035792;28;20454;-74
2024/03/30 08:26:02;;;;;;;16.00;5.50;;;10.40;99.90;;;;;;5035892;28;20438;-73
2024/03/30 08:28:49;;;;;;;22.57;6.20;;;10.40;99.90;;;;;;5035827;28;20532;-74
2024/03/30 08:31:34;;;;;;;16.70;6.70;;;10.40;99.90;;;;;;5039237;28;20455;-74
2024/03/30 08:34:19;;;;;;;27.23;5.33;;;10.50;99.90;;;;;;5034272;28;20466;-73
2024/03/30 08:37:04;;;;;;;20.77;5.77;;;10.60;99.90;;;;;;5037157;28;20461;-73
2024/03/30 08:39:50;;;;;;;22.20;6.50;;;10.70;99.90;;;;;;5036623;28;20451;-73
2024/03/30 08:42:35;;;;;;;28.23;7.30;;;10.70;99.90;;;;;;5040366;28;20472;-73
2024/03/30 08:45:22;;;;;;;25.10;6.17;;;10.70;99.90;;;;;;5033847;28;20449;-73
2024/03/30 08:48:10;;;;;;;24.43;7.47;;;10.70;99.90;;;;;;5039153;28;20449;-74
2024/03/30 08:50:56;;;;;;;20.03;7.57;;;10.80;99.90;;;;;;5042755;28;20461;-73
2024/03/30 08:53:40;;;;;;;26.00;7.17;;;10.80;99.90;;;;;;5045846;28;20441;-73
2024/03/30 08:56:26;;;;;;;20.03;6.20;;;10.90;99.90;;;;;;5045563;28;20783;-74
2024/03/30 08:59:11;;;;;;;25.07;6.50;;;10.90;99.90;;;;;;5066421;22;20472;-74
2024/03/30 09:01:58;;;;;;;22.87;5.70;;;10.90;99.90;;;;;;5045817;28;20488;-74
2024/03/30 09:04:43;;;;;;;27.93;6.23;;;10.90;99.90;;;;;;5046767;28;20433;-73
2024/03/30 09:07:28;;;;;;;29.00;5.97;;;11.00;99.90;;;;;;5041755;28;20458;-73
2024/03/30 09:10:13;;;;;;;22.33;4.23;;;11.10;99.90;;;;;;5042586;28;21060;-74
2024/03/30 09:12:58;;;;;;;25.70;5.87;;;11.20;99.90;;;;;;5044063;28;20473;-73
2024/03/30 09:15:43;;;;;;;26.00;4.80;;;11.30;99.90;;;;;;5047526;28;21187;-74
2024/03/30 09:18:30;;;;;;;40.20;7.13;;;11.40;99.90;;;;;;5044526;28;21061;-73
2024/03/30 09:21:14;;;;;;;28.07;4.60;;;11.50;99.90;;;;;;5040470;28;20472;-73
2024/03/30 09:24:00;;;;;;;20.57;4.80;;;11.60;99.90;;;;;;5044201;28;20513;-74
2024/03/30 09:26:45;;;;;;;18.73;5.00;;;11.70;99.90;;;;;;5044283;28;20601;-74
2024/03/30 09:29:31;;;;;;;37.57;5.43;;;11.80;99.90;;;;;;5041705;28;20524;-73
2024/03/30 09:32:15;;;;;;;38.90;7.00;;;11.80;99.90;;;;;;5049705;28;20959;-74
2024/03/30 09:35:02;;;;;;;46.20;11.17;;;11.90;99.90;;;;;;5043714;28;20480;-74
2024/03/30 09:37:47;;;;;;;41.33;10.77;;;12.00;99.90;;;;;;5041294;28;20454;-73
2024/03/30 09:40:33;;;;;;;32.10;11.30;;;12.00;99.90;;;;;;5043354;28;20451;-73
2024/03/30 09:43:18;;;;;;;55.53;22.67;;;12.00;99.90;;;;;;5040862;28;20830;-74
2024/03/30 09:46:04;;;;;;;61.33;25.07;;;12.10;99.90;;;;;;5041634;28;20856;-74
2024/03/30 09:48:51;;;;;;;45.87;18.83;;;12.10;99.90;;;;;;5043977;28;20486;-74
2024/03/30 09:51:40;;;;;;;54.57;16.03;;;12.20;99.90;;;;;;5043522;28;20425;-74
2024/03/30 09:54:26;;;;;;;39.13;11.20;;;12.30;99.90;;;;;;5044578;28;20467;-74
2024/03/30 09:57:10;;;;;;;45.10;16.30;;;12.30;99.90;;;;;;5040896;28;20476;-74
2024/03/30 09:59:56;;;;;;;37.90;9.60;;;12.50;99.90;;;;;;5043830;28;20483;-73
2024/03/30 10:02:41;;;;;;;27.57;7.10;;;12.60;99.90;;;;;;5042513;28;20535;-74
2024/03/30 10:05:28;;;;;;;40.03;7.80;;;12.70;99.90;;;;;;5047726;28;20447;-74
2024/03/30 10:08:17;;;;;;;24.70;6.60;;;12.80;99.90;;;;;;5042893;28;20455;-74
2024/03/30 10:11:10;;;;;;;27.40;6.40;;;12.90;99.90;;;;;;5042898;28;20451;-74
2024/03/30 10:13:59;;;;;;;27.73;6.13;;;13.10;99.90;;;;;;5040184;28;20434;-74
2024/03/30 10:16:46;;;;;;;49.37;13.30;;;13.30;99.90;;;;;;5043324;28;20472;-74
2024/03/30 10:19:33;;;;;;;33.37;11.13;;;13.50;99.90;;;;;;5040376;28;20615;-74
2024/03/30 10:22:18;;;;;;;33.83;9.73;;;13.70;99.90;;;;;;5041511;28;20504;-74
2024/03/30 10:25:05;;;;;;;75.03;29.10;;;13.80;99.90;;;;;;5043725;28;20556;-74
2024/03/30 10:27:51;;;;;;;70.87;21.63;;;14.00;99.90;;;;;;5041691;28;20586;-74
2024/03/30 10:30:36;;;;;;;40.00;12.10;;;14.20;99.90;;;;;;5040238;28;20495;-74
2024/03/30 10:33:21;;;;;;;34.70;12.03;;;14.40;99.90;;;;;;5041648;28;20866;-74
2024/03/30 10:36:09;;;;;;;27.57;11.63;;;14.60;99.90;;;;;;5041266;28;20451;-74
2024/03/30 10:38:57;;;;;;;30.13;9.40;;;14.70;99.90;;;;;;5041068;28;21082;-74
2024/03/30 10:41:44;;;;;;;28.77;7.57;;;14.90;99.90;;;;;;5045304;28;20525;-74
2024/03/30 10:44:29;;;;;;;42.13;7.30;;;15.00;99.90;;;;;;5042624;28;20475;-74
2024/03/30 10:47:14;;;;;;;45.00;5.87;;;15.20;99.90;;;;;;5038528;28;20447;-74
2024/03/30 10:50:00;;;;;;;57.93;6.53;;;15.20;99.90;;;;;;5037555;28;21056;-74
2024/03/30 10:52:46;;;;;;;39.03;5.87;;;15.30;99.90;;;;;;5041682;28;20498;-74
2024/03/30 10:55:30;;;;;;;33.77;7.50;;;15.20;99.90;;;;;;5042686;28;20464;-74
2024/03/30 10:58:17;;;;;;;36.07;6.83;;;15.20;99.90;;;;;;5037493;28;20506;-74
2024/03/30 11:01:04;;;;;;;41.33;7.87;;;15.30;99.90;;;;;;5040498;28;20443;-74
2024/03/30 11:03:51;;;;;;;36.30;7.17;;;15.20;99.90;;;;;;5040970;28;20455;-74
2024/03/30 11:06:36;;;;;;;34.93;7.63;;;15.20;99.90;;;;;;5039722;28;20455;-74
2024/03/30 11:09:23;;;;;;;28.30;6.63;;;15.20;99.90;;;;;;5045142;28;20529;-74
2024/03/30 11:12:08;;;;;;;40.90;7.80;;;15.20;99.90;;;;;;5038122;28;20948;-74
2024/03/30 11:14:55;;;;;;;42.23;6.90;;;15.10;99.90;;;;;;5041835;28;20503;-74
2024/03/30 11:17:44;;;;;;;35.50;8.37;;;15.10;99.90;;;;;;5039678;28;20476;-74
2024/03/30 11:20:39;;;;;;;29.27;8.40;;;15.00;99.90;;;;;;5044747;28;20964;-74
2024/03/30 11:23:27;;;;;;;24.80;5.77;;;15.00;99.90;;;;;;5044122;28;20813;-74
2024/03/30 11:26:15;;;;;;;30.63;8.10;;;14.90;99.90;;;;;;5041331;28;20469;-74
2024/03/30 11:29:07;;;;;;;44.23;13.23;;;14.90;99.90;;;;;;5041302;28;20509;-74
2024/03/30 11:31:59;;;;;;;25.33;7.33;;;14.90;99.90;;;;;;5042216;28;20419;-74
2024/03/30 11:34:54;;;;;;;33.70;7.60;;;15.00;99.90;;;;;;5038044;28;20918;-74
2024/03/30 11:37:43;;;;;;;27.70;6.50;;;14.90;99.90;;;;;;5039880;28;20931;-74
2024/03/30 11:40:31;;;;;;;18.03;6.53;;;14.80;99.90;;;;;;5042041;28;20455;-74
2024/03/30 11:43:31;;;;;;;27.23;6.50;;;14.40;99.90;;;;;;5038543;28;21128;-74
2024/03/30 11:46:17;;;;;;;21.17;6.13;;;14.10;99.90;;;;;;5039855;28;21033;-74
2024/03/30 11:49:04;;;;;;;25.00;6.07;;;13.80;99.90;;;;;;5041811;28;20471;-74
2024/03/30 11:51:51;;;;;;;10.17;5.20;;;13.60;99.90;;;;;;5041499;28;20430;-73
2024/03/30 11:54:36;;;;;;;23.50;6.53;;;13.40;99.90;;;;;;5045477;28;20778;-74
2024/03/30 11:57:26;;;;;;;17.07;6.60;;;13.30;99.90;;;;;;5040637;28;20544;-74
2024/03/30 12:00:14;;;;;;;26.90;6.43;;;13.30;99.90;;;;;;5034605;28;20941;-74
2024/03/30 12:03:01;;;;;;;24.90;5.90;;;13.30;99.90;;;;;;5038139;28;20490;-74
2024/03/30 12:05:48;;;;;;;18.57;4.70;;;13.30;99.90;;;;;;5041707;28;20433;-74
2024/03/30 12:08:33;;;;;;;27.87;10.00;;;13.40;99.90;;;;;;5039598;28;20471;-74
2024/03/30 12:11:18;;;;;;;20.93;7.60;;;13.40;99.90;;;;;;5041665;28;20447;-74
2024/03/30 12:14:06;;;;;;;22.87;5.43;;;13.40;99.90;;;;;;5040349;28;20444;-74
2024/03/30 12:16:51;;;;;;;20.20;5.40;;;13.40;99.90;;;;;;5038268;28;20524;-74
2024/03/30 12:19:38;;;;;;;22.57;5.27;;;13.50;99.90;;;;;;5035135;28;20875;-74
2024/03/30 12:22:24;;;;;;;26.70;6.33;;;13.50;99.90;;;;;;5039020;28;20474;-74
2024/03/30 12:25:11;;;;;;;26.30;5.73;;;13.40;99.90;;;;;;5039430;28;20418;-74
2024/03/30 12:27:57;;;;;;;15.33;5.00;;;13.40;99.90;;;;;;5040709;28;21055;-74
2024/03/30 12:30:44;;;;;;;16.80;4.63;;;13.40;99.90;;;;;;5046622;28;20866;-74
2024/03/30 12:33:30;;;;;;;19.40;5.23;;;13.40;99.90;;;;;;5046842;28;20446;-74
2024/03/30 12:36:15;;;;;;;17.47;5.50;;;13.40;99.90;;;;;;5043868;28;20467;-74
2024/03/30 12:39:02;;;;;;;14.90;5.30;;;13.30;99.90;;;;;;5042701;28;21139;-74
2024/03/30 12:41:48;;;;;;;21.73;5.00;;;13.30;99.90;;;;;;5043235;28;20458;-73
2024/03/30 12:44:33;;;;;;;24.50;5.80;;;13.30;99.90;;;;;;5040029;28;20441;-74
2024/03/30 12:47:18;;;;;;;20.80;4.40;;;13.40;99.90;;;;;;5043005;28;20955;-74
2024/03/30 12:50:03;;;;;;;18.53;5.60;;;13.40;99.90;;;;;;5043862;28;20535;-74
2024/03/30 12:52:50;;;;;;;18.23;5.83;;;13.40;99.90;;;;;;5045312;28;20422;-74
2024/03/30 12:55:36;;;;;;;33.43;8.77;;;13.40;99.90;;;;;;5049354;28;20467;-74
2024/03/30 12:58:23;;;;;;;21.27;9.80;;;13.50;99.90;;;;;;5044005;28;20516;-74
2024/03/30 13:01:07;;;;;;;35.93;14.30;;;13.50;99.90;;;;;;5040072;28;20466;-74
2024/03/30 13:03:53;;;;;;;30.70;12.50;;;13.50;99.90;;;;;;5042759;28;20531;-74
2024/03/30 13:06:42;;;;;;;30.63;11.70;;;13.50;99.90;;;;;;5042912;28;20457;-74
2024/03/30 13:09:27;;;;;;;20.63;8.77;;;13.50;99.90;;;;;;5042661;28;20532;-74
2024/03/30 13:12:13;;;;;;;22.10;8.10;;;13.50;99.90;;;;;;5046591;28;20456;-74
2024/03/30 13:14:59;;;;;;;20.30;6.20;;;13.50;99.90;;;;;;5041489;28;20449;-74
2024/03/30 13:17:43;;;;;;;30.53;6.23;;;13.60;99.90;;;;;;5039112;28;20451;-74
2024/03/30 13:20:30;;;;;;;22.33;7.33;;;13.60;99.90;;;;;;5040564;28;20483;-74
2024/03/30 13:23:15;;;;;;;17.47;6.27;;;13.50;99.90;;;;;;5040199;28;20534;-74
2024/03/30 13:26:01;;;;;;;19.20;5.97;;;13.50;99.90;;;;;;5044033;28;20859;-74
2024/03/30 13:28:47;;;;;;;15.13;5.90;;;13.50;99.90;;;;;;5039690;28;20438;-74
2024/03/30 13:31:32;;;;;;;20.90;6.60;;;13.40;99.90;;;;;;5036470;28;20450;-74
2024/03/30 13:34:17;;;;;;;24.73;6.60;;;13.40;99.90;;;;;;5034272;28;20447;-74
2024/03/30 13:37:04;;;;;;;21.63;6.90;;;13.40;99.90;;;;;;5036890;28;20768;-74
2024/03/30 13:39:48;;;;;;;14.40;5.70;;;13.40;99.90;;;;;;5038535;28;20478;-74
2024/03/30 13:42:34;;;;;;;18.67;4.60;;;13.50;99.90;;;;;;5038404;28;20492;-74
2024/03/30 13:45:21;;;;;;;23.50;5.63;;;13.50;99.90;;;;;;5036615;28;20586;-74
2024/03/30 13:48:07;;;;;;;20.87;5.57;;;13.50;99.90;;;;;;5042168;28;20478;-74
2024/03/30 13:50:52;;;;;;;21.93;4.97;;;13.50;99.90;;;;;;5037923;28;20430;-74
2024/03/30 13:53:37;;;;;;;22.63;5.17;;;13.40;99.90;;;;;;5043611;28;20421;-74
2024/03/30 13:56:23;;;;;;;17.13;4.70;;;13.40;99.90;;;;;;5038251;28;20418;-74
2024/03/30 13:59:07;;;;;;;21.40;5.33;;;13.50;99.90;;;;;;5038139;28;20552;-74
2024/03/30 14:01:54;;;;;;;13.50;4.63;;;13.50;99.90;;;;;;5041699;28;20421;-74
2024/03/30 14:04:39;;;;;;;9.07;4.93;;;13.50;99.90;;;;;;5042418;28;20494;-74
2024/03/30 14:07:25;;;;;;;19.20;4.87;;;13.50;99.90;;;;;;5037753;28;21206;-74
2024/03/30 14:10:09;;;;;;;14.17;4.83;;;13.50;99.90;;;;;;5041861;28;20475;-73
2024/03/30 14:12:55;;;;;;;26.90;5.80;;;13.60;99.90;;;;;;5038958;28;20466;-74
2024/03/30 14:15:40;;;;;;;23.70;5.93;;;13.60;99.90;;;;;;5039308;28;21002;-74
2024/03/30 14:18:27;;;;;;;33.83;6.33;;;13.60;99.90;;;;;;5037652;28;20999;-74
2024/03/30 14:21:12;;;;;;;34.63;8.50;;;13.60;99.90;;;;;;5040220;28;20449;-74
2024/03/30 14:23:57;;;;;;;24.93;6.00;;;13.50;99.90;;;;;;5033493;28;20499;-74
2024/03/30 14:26:42;;;;;;;22.20;4.50;;;13.60;99.90;;;;;;5038835;28;20422;-74
2024/03/30 14:29:28;;;;;;;28.63;5.60;;;13.60;99.90;;;;;;5033601;28;20489;-74